Gooselake, Iowa
Current Conditions -  °F | °C
As of 3:55 PM on Monday 24 Nov 2014 (Local Time) from KCWI Reporting Station
Overcast Overcast  
Wind Chill: 11°   Ceiling: 1800
Heat Index: 25°   Visibility: 2mi
Dew Point: 19°   Wind: 18mph
Humidity: 80%   Direction: 280°W
Pressure: 29.65"   Gusts: 24mph
Location:  41.9929°N, 90.386°W
Report Text: KCWI 242155Z AUTO 28016G21KT 2SM SCT010 OVC018 M04/M07 A2965 RMK AO1
Loading
Personal Weather Stations






























Interactive Weather Map New forecast layout! Learn more

10-Day Weather Forecast

Advertisements
Track Severe Weather on mobile